Time;durP1;ratioP1;P1;durP2;ratioP2;P2;SDS_P1;SDS_P2;PMS_P1;PMS_P2;Temp;Humidity;BMP_temperature;BMP_pressure;BME280_temperature;BME280_humidity;BME280_pressure;Samples;Min_cycle;Max_cycle;Signal;HPM_P1;HPM_P2
2022/06/02 00:00:16;;;;;;;11.15;8.32;;;;;;;9.51;93.84;101885.97;5094300;28;20355;-63
2022/06/02 00:03:23;;;;;;;9.95;8.63;;;;;;;9.46;93.85;101885.91;5095285;28;20036;-63
2022/06/02 00:05:58;;;;;;;9.75;8.07;;;;;;;9.46;94.00;101878.06;5098198;28;20121;-63
2022/06/02 00:08:39;;;;;;;9.48;8.23;;;;;;;9.40;93.31;101881.50;5098482;28;20028;-63
2022/06/02 00:11:26;;;;;;;10.98;8.82;;;;;;;9.32;93.98;101885.81;5098177;28;20074;-63
2022/06/02 00:14:06;;;;;;;10.45;8.90;;;;;;;9.32;94.39;101885.81;5098275;28;20064;-63
2022/06/02 00:17:02;;;;;;;11.25;8.63;;;;;;;9.30;94.18;101892.75;5097876;28;20111;-63
2022/06/02 00:19:35;;;;;;;10.85;8.60;;;;;;;9.28;93.26;101893.59;5098038;28;20123;-64
2022/06/02 00:22:09;;;;;;;11.05;9.18;;;;;;;9.23;94.51;101888.31;5097907;28;20085;-64
2022/06/02 00:24:40;;;;;;;10.60;9.10;;;;;;;9.15;94.77;101889.13;5097565;28;20048;-63
2022/06/02 00:27:12;;;;;;;9.80;8.57;;;;;;;9.19;94.24;101899.59;5097814;28;20024;-63
2022/06/02 00:30:00;;;;;;;9.82;8.50;;;;;;;9.17;94.28;101896.13;5097958;28;20047;-63
2022/06/02 00:32:41;;;;;;;9.70;8.07;;;;;;;8.97;94.50;101867.22;5097801;28;20024;-63
2022/06/02 00:35:18;;;;;;;9.55;8.10;;;;;;;9.06;94.58;101900.34;5097757;28;20047;-63
2022/06/02 00:38:18;;;;;;;11.95;9.15;;;;;;;8.98;94.96;101892.47;5097563;28;20039;-63
2022/06/02 00:40:44;;;;;;;12.00;8.95;;;;;;;8.97;94.06;101895.06;5097696;28;20355;-65
2022/06/02 00:43:30;;;;;;;12.32;8.77;;;;;;;8.93;94.65;101895.88;5097767;28;20039;-63
2022/06/02 00:46:10;;;;;;;10.88;9.32;;;;;;;8.75;95.44;101887.84;5097488;28;20471;-63
2022/06/02 00:48:40;;;;;;;11.98;8.90;;;;;;;8.71;95.88;101897.38;5097376;28;20043;-63
2022/06/02 00:51:09;;;;;;;10.82;8.63;;;;;;;8.79;96.26;101910.53;5097385;28;20107;-63
2022/06/02 00:53:40;;;;;;;10.80;9.27;;;;;;;8.75;96.07;101909.59;5097543;28;20042;-63
2022/06/02 00:59:19;;;;;;;11.85;9.35;;;;;;;8.77;95.79;101907.00;5097729;28;20427;-63
2022/06/02 01:01:44;;;;;;;12.32;9.50;;;;;;;8.72;95.94;101915.66;5097122;28;20035;-63
2022/06/02 01:04:14;;;;;;;13.07;9.50;;;;;;;8.68;96.07;101915.59;5096980;28;20050;-63
2022/06/02 01:07:04;;;;;;;12.45;10.18;;;;;;;8.71;95.82;101913.03;5097054;28;20032;-63
2022/06/02 01:09:58;;;;;;;10.90;9.77;;;;;;;8.66;96.24;101907.75;5097013;28;20020;-63
2022/06/02 01:12:26;;;;;;;12.13;10.27;;;;;;;8.64;96.17;101911.22;5096829;28;20040;-64
2022/06/02 01:15:06;;;;;;;14.95;9.75;;;;;;;8.60;95.55;101899.88;5096169;28;20181;-63
2022/06/02 01:18:02;;;;;;;12.98;9.23;;;;;;;8.54;95.93;101905.00;5096963;28;20040;-63
2022/06/02 01:20:56;;;;;;;12.15;9.50;;;;;;;8.48;96.13;101894.53;5096717;28;20036;-64
2022/06/02 01:23:46;;;;;;;12.63;9.60;;;;;;;8.50;96.23;101900.59;5067673;28;20352;-64
2022/06/02 01:26:20;;;;;;;14.15;10.65;;;;;;;8.44;96.76;101900.56;5096634;28;20079;-63
2022/06/02 01:29:03;;;;;;;11.23;10.02;;;;;;;8.42;96.72;101899.66;5096871;28;20126;-64
2022/06/02 01:31:38;;;;;;;12.55;10.02;;;;;;;8.43;96.26;101906.63;5096712;28;20100;-63
2022/06/02 01:34:14;;;;;;;11.70;10.38;;;;;;;8.38;96.54;101908.28;5096730;28;20043;-63
2022/06/02 01:37:03;;;;;;;12.15;10.25;;;;;;;8.43;96.23;101908.34;5096587;28;20153;-63
2022/06/02 01:39:56;;;;;;;14.57;10.57;;;;;;;8.37;96.19;101909.16;5096529;28;20397;-63
2022/06/02 01:42:43;;;;;;;14.00;11.02;;;;;;;8.37;96.66;101911.75;5096229;28;20348;-63
2022/06/02 01:45:15;;;;;;;15.15;11.68;;;;;;;8.33;96.78;101910.84;5096582;28;20055;-63
2022/06/02 01:47:43;;;;;;;13.82;12.00;;;;;;;8.32;96.83;101916.91;5096251;28;20358;-63
2022/06/02 01:50:33;;;;;;;13.93;12.10;;;;;;;8.29;96.52;101910.75;5095918;28;20032;-64
2022/06/02 01:53:15;;;;;;;15.70;11.63;;;;;;;8.30;96.77;101913.38;5097602;28;20036;-64
2022/06/02 01:55:59;;;;;;;13.75;12.13;;;;;;;8.28;96.84;101895.97;5108501;28;20020;-63
2022/06/02 01:58:44;;;;;;;15.13;12.40;;;;;;;8.25;97.06;101903.75;5096190;28;20107;-63
2022/06/02 02:01:14;;;;;;;16.58;12.65;;;;;;;8.13;97.45;101898.38;5096101;28;20093;-63
2022/06/02 02:04:06;;;;;;;14.27;12.77;;;;;;;8.15;97.98;101902.72;5096144;28;20091;-63
2022/06/02 02:07:09;;;;;;;13.13;11.43;;;;;;;8.16;97.83;101916.66;5095909;28;20034;-63
2022/06/02 02:10:05;;;;;;;16.30;12.55;;;;;;;8.03;98.17;101907.78;5095875;28;20044;-63
2022/06/02 02:12:46;;;;;;;15.00;12.52;;;;;;;8.04;98.08;101912.16;5057497;28;20152;-63
2022/06/02 02:15:24;;;;;;;15.90;12.60;;;;;;;8.03;98.58;101916.47;5095876;28;20415;-63
2022/06/02 02:18:16;;;;;;;15.82;12.30;;;;;;;8.06;98.42;101917.38;5095837;28;20277;-63
2022/06/02 02:21:00;;;;;;;15.23;12.80;;;;;;;8.02;98.39;101916.47;5095785;28;20039;-64
2022/06/02 02:24:00;;;;;;;15.30;13.52;;;;;;;8.03;98.77;101920.81;5095331;28;20466;-63
2022/06/02 02:26:49;;;;;;;16.13;13.30;;;;;;;8.05;98.30;101911.28;5095451;28;20475;-63
2022/06/02 02:29:36;;;;;;;14.60;13.00;;;;;;;8.02;98.15;101924.28;5081399;28;20467;-65
2022/06/02 02:32:23;;;;;;;18.50;14.68;;;;;;;7.99;98.38;101922.50;5095296;28;20028;-63
2022/06/02 02:35:11;;;;;;;16.45;14.30;;;;;;;7.99;98.53;101926.84;5095776;28;20331;-64
2022/06/02 02:37:46;;;;;;;18.92;14.48;;;;;;;7.97;98.45;101923.31;5095245;28;20031;-65
2022/06/02 02:40:35;;;;;;;17.05;13.57;;;;;;;7.90;98.36;101909.34;5095423;28;20074;-63
2022/06/02 02:43:14;;;;;;;17.45;14.10;;;;;;;7.81;98.69;101917.00;5095461;28;20024;-63
2022/06/02 02:46:10;;;;;;;19.55;14.65;;;;;;;7.85;98.61;101923.16;5095029;28;20035;-63
2022/06/02 02:48:49;;;;;;;18.45;14.85;;;;;;;7.84;98.62;101924.88;5095192;28;20111;-64
2022/06/02 02:51:47;;;;;;;18.17;14.88;;;;;;;7.84;98.97;101922.28;5095104;28;20050;-63
2022/06/02 02:54:31;;;;;;;20.48;16.48;;;;;;;7.82;99.06;101923.97;5095338;28;20028;-63
2022/06/02 02:57:09;;;;;;;20.38;15.20;;;;;;;7.78;98.91;101924.81;5095282;28;20020;-64
2022/06/02 02:59:45;;;;;;;21.10;16.20;;;;;;;7.77;98.78;101925.66;5095134;28;20423;-64
2022/06/02 03:02:29;;;;;;;19.75;16.38;;;;;;;7.76;98.58;101923.91;5095024;28;20062;-63
2022/06/02 03:05:05;;;;;;;20.38;16.42;;;;;;;7.69;98.70;101932.47;5095042;28;20351;-63
2022/06/02 03:07:31;;;;;;;22.83;16.60;;;;;;;7.60;98.77;101930.59;5095059;28;20028;-63
2022/06/02 03:10:04;;;;;;;19.33;16.17;;;;;;;7.61;99.02;101936.69;5094899;28;20097;-64
2022/06/02 03:12:38;;;;;;;21.20;16.58;;;;;;;7.55;98.72;101934.84;5095061;28;20064;-63
2022/06/02 03:15:16;;;;;;;21.65;17.60;;;;;;;7.52;98.90;101941.75;5095018;28;20031;-64
2022/06/02 03:17:50;;;;;;;25.08;18.35;;;;;;;7.49;99.11;101946.88;5095181;28;20308;-64
2022/06/02 03:20:34;;;;;;;22.75;17.05;;;;;;;7.53;99.02;101948.69;5095137;28;20423;-63
2022/06/02 03:23:33;;;;;;;25.17;18.00;;;;;;;7.52;98.95;101952.16;5095071;28;20025;-63
2022/06/02 03:26:36;;;;;;;26.52;19.00;;;;;;;7.52;99.02;101946.94;5094965;28;20032;-63
2022/06/02 03:29:20;;;;;;;21.50;17.98;;;;;;;7.52;98.82;101952.16;5095139;28;20316;-63
2022/06/02 03:32:06;;;;;;;23.27;18.00;;;;;;;7.49;98.90;101955.59;5095070;28;20035;-63
2022/06/02 03:34:50;;;;;;;23.40;18.67;;;;;;;7.50;99.04;101965.16;5095137;28;20125;-63
2022/06/02 03:37:33;;;;;;;22.65;17.55;;;;;;;7.47;99.04;101970.31;5094451;28;20107;-63
2022/06/02 03:40:29;;;;;;;23.85;17.92;;;;;;;7.47;98.76;101970.31;5098786;28;20032;-63
2022/06/02 03:43:15;;;;;;;22.85;17.13;;;;;;;7.44;98.76;101975.47;5098381;28;20031;-63
2022/06/02 03:45:50;;;;;;;26.88;19.88;;;;;;;7.40;99.17;101965.84;5098767;28;20032;-64
2022/06/02 03:48:24;;;;;;;27.73;20.20;;;;;;;7.41;99.42;101972.81;5098736;28;20096;-63
2022/06/02 03:51:27;;;;;;;25.38;18.70;;;;;;;7.46;99.46;101981.56;5098594;28;20046;-64
2022/06/02 03:54:11;;;;;;;27.58;19.98;;;;;;;7.45;99.63;101974.59;5098616;28;20031;-63
2022/06/02 03:56:59;;;;;;;24.02;18.88;;;;;;;7.48;99.19;101974.66;5099283;28;20020;-64
2022/06/02 04:00:10;;;;;;;28.33;19.50;;;;;;;7.52;99.08;101980.81;5098585;28;20032;-63
2022/06/02 04:02:50;;;;;;;24.38;19.58;;;;;;;7.49;99.03;101980.75;5066929;28;20455;-63
2022/06/02 04:05:43;;;;;;;26.17;20.05;;;;;;;7.50;98.97;101986.00;5098542;28;20063;-64
2022/06/02 04:08:29;;;;;;;25.30;19.27;;;;;;;7.53;99.10;101987.78;5098443;28;20331;-64
2022/06/02 04:11:14;;;;;;;26.27;19.70;;;;;;;7.57;98.86;101994.78;5098210;28;20055;-63
2022/06/02 04:14:06;;;;;;;25.85;19.60;;;;;;;7.50;99.34;101991.19;5098203;28;20039;-64
2022/06/02 04:16:59;;;;;;;27.95;20.33;;;;;;;7.55;99.36;101986.06;5098184;28;20351;-63
2022/06/02 04:22:53;;;;;;;27.73;20.13;;;;;;;7.60;99.73;101995.72;5098218;28;20396;-63
2022/06/02 04:25:44;;;;;;;29.50;21.10;;;;;;;7.61;99.94;101991.41;5098228;28;20055;-64
2022/06/02 04:28:11;;;;;;;29.92;21.40;;;;;;;7.67;100.00;102000.19;5097712;28;20036;-64
2022/06/02 04:31:32;;;;;;;29.23;20.98;;;;;;;7.75;100.00;102005.53;5097581;28;20032;-63
2022/06/02 04:34:36;;;;;;;32.20;23.10;;;;;;;7.83;100.00;102003.91;5015578;28;20050;-63
2022/06/02 04:37:32;;;;;;;32.22;24.35;;;;;;;7.90;100.00;102005.78;5000956;28;20049;-63
2022/06/02 04:40:03;;;;;;;35.60;25.65;;;;;;;7.93;100.00;102013.66;5091718;28;20048;-64
2022/06/02 04:42:31;;;;;;;31.80;24.20;;;;;;;8.01;100.00;102011.16;5097575;28;20032;-63
2022/06/02 04:45:08;;;;;;;36.78;26.77;;;;;;;8.04;100.00;102014.69;5097515;28;20036;-64
2022/06/02 04:48:15;;;;;;;34.08;26.13;;;;;;;8.09;100.00;102001.72;5097358;28;20443;-63
2022/06/02 04:50:52;;;;;;;38.58;27.95;;;;;;;8.17;100.00;102012.25;5096152;28;20028;-64
2022/06/02 04:53:29;;;;;;;34.55;26.50;;;;;;;8.23;100.00;102010.63;5097364;28;20096;-64
2022/06/02 04:56:32;;;;;;;35.20;26.90;;;;;;;8.30;100.00;102007.28;5097551;28;20354;-63
2022/06/02 04:59:10;;;;;;;36.20;27.35;;;;;;;8.28;100.00;102001.16;5096960;28;20051;-63
2022/06/02 05:01:54;;;;;;;36.35;26.80;;;;;;;8.40;100.00;102007.41;5097240;28;20119;-63
2022/06/02 05:04:24;;;;;;;33.95;25.63;;;;;;;8.40;100.00;102005.69;5097204;28;20326;-63
2022/06/02 05:07:00;;;;;;;37.90;26.73;;;;;;;8.43;100.00;102002.25;5097459;28;20028;-63
2022/06/02 05:09:35;;;;;;;39.15;27.65;;;;;;;8.50;100.00;102007.56;5097275;28;20032;-63
2022/06/02 05:12:49;;;;;;;40.80;29.10;;;;;;;8.57;100.00;102016.34;5097103;28;20053;-64
2022/06/02 05:15:54;;;;;;;38.33;28.58;;;;;;;8.66;100.00;102024.28;4995497;28;20026;-64
2022/06/02 05:18:52;;;;;;;38.13;28.02;;;;;;;8.67;100.00;102013.00;5066398;28;20176;-64
2022/06/02 05:21:53;;;;;;;38.35;29.27;;;;;;;8.75;100.00;102023.56;5096944;28;20028;-64
2022/06/02 05:24:45;;;;;;;39.15;28.80;;;;;;;8.83;100.00;102016.72;5096855;28;20416;-63
2022/06/02 05:27:32;;;;;;;44.30;30.75;;;;;;;8.89;100.00;102022.88;5096451;28;20427;-63
2022/06/02 05:30:15;;;;;;;41.55;30.40;;;;;;;8.96;100.00;102021.22;5096929;28;20103;-63
2022/06/02 05:32:49;;;;;;;43.22;31.60;;;;;;;9.01;100.00;102016.91;5096835;28;20043;-63
2022/06/02 05:35:39;;;;;;;42.38;31.08;;;;;;;9.09;100.00;102023.09;5096384;28;20036;-64
2022/06/02 05:38:29;;;;;;;43.13;30.52;;;;;;;9.14;100.00;102025.78;5096325;28;20036;-63
2022/06/02 05:41:26;;;;;;;45.25;32.63;;;;;;;9.20;100.00;102013.66;5096592;28;20094;-63
2022/06/02 05:44:04;;;;;;;42.58;31.25;;;;;;;9.30;100.00;102020.75;5096597;28;20046;-63
2022/06/02 05:46:54;;;;;;;38.30;29.48;;;;;;;9.50;100.00;102018.34;5096266;28;20324;-64
2022/06/02 05:49:46;;;;;;;41.92;29.85;;;;;;;9.64;100.00;102023.69;5096449;28;20023;-64
2022/06/02 05:52:33;;;;;;;42.83;30.02;;;;;;;10.06;99.93;102020.53;5090896;28;20135;-63
2022/06/02 05:55:26;;;;;;;37.22;27.70;;;;;;;10.07;99.45;102012.72;5096256;28;20028;-62
2022/06/02 05:58:22;;;;;;;38.80;28.05;;;;;;;10.07;99.98;102024.91;5096022;28;20168;-63
2022/06/02 06:01:06;;;;;;;39.30;28.02;;;;;;;10.09;100.00;102031.03;5095874;28;20035;-62
2022/06/02 06:03:44;;;;;;;36.35;27.35;;;;;;;10.09;100.00;102037.13;5096182;28;20056;-62
2022/06/02 06:06:31;;;;;;;36.97;28.13;;;;;;;10.53;100.00;102039.22;5096296;28;20024;-63
2022/06/02 06:09:25;;;;;;;31.63;24.38;;;;;;;11.00;96.63;102038.59;5096116;28;20059;-62
2022/06/02 06:12:08;;;;;;;31.10;23.45;;;;;;;10.86;96.03;102045.50;5096062;28;20034;-63
2022/06/02 06:14:43;;;;;;;29.38;23.50;;;;;;;10.71;97.15;102052.44;5095827;28;20032;-64
2022/06/02 06:17:14;;;;;;;33.17;23.90;;;;;;;10.64;97.31;102055.88;5095562;28;20397;-63
2022/06/02 06:20:04;;;;;;;31.83;25.47;;;;;;;10.60;97.66;102055.81;5095842;28;20032;-63
2022/06/02 06:22:45;;;;;;;32.40;25.42;;;;;;;10.55;98.09;102047.97;5095734;28;20036;-63
2022/06/02 06:25:41;;;;;;;30.63;24.77;;;;;;;10.60;97.98;102056.69;5095729;28;20073;-64
2022/06/02 06:28:17;;;;;;;32.38;24.50;;;;;;;10.62;98.02;102065.44;5095752;28;20028;-63
2022/06/02 06:31:05;;;;;;;29.45;23.45;;;;;;;10.67;97.86;102058.50;5095502;28;20164;-63
2022/06/02 06:33:42;;;;;;;28.33;22.77;;;;;;;10.74;98.01;102062.00;5095348;28;20046;-62
2022/06/02 06:36:38;;;;;;;28.25;22.10;;;;;;;10.74;97.48;102052.41;5095331;28;20039;-61
2022/06/02 06:39:03;;;;;;;27.88;22.65;;;;;;;10.84;97.91;102071.69;5095705;28;20439;-64
2022/06/02 06:41:40;;;;;;;26.42;21.17;;;;;;;10.89;97.46;102061.25;5095334;28;20028;-65
2022/06/02 06:44:17;;;;;;;24.13;20.30;;;;;;;10.94;97.69;102064.72;5094891;28;20043;-64
2022/06/02 06:47:00;;;;;;;25.33;21.08;;;;;;;11.02;98.01;102069.16;5095182;28;20118;-63
2022/06/02 06:50:04;;;;;;;29.38;20.98;;;;;;;11.14;97.32;102078.81;5094006;28;20035;-64
2022/06/02 06:52:41;;;;;;;22.92;18.90;;;;;;;11.21;96.61;102075.34;5094463;28;20036;-63
2022/06/02 06:55:28;;;;;;;23.08;19.58;;;;;;;11.29;96.62;102080.59;5094685;28;20085;-64
2022/06/02 06:58:30;;;;;;;20.17;16.48;;;;;;;11.34;95.18;102073.63;5105051;28;20051;-63
2022/06/02 07:01:15;;;;;;;19.10;16.70;;;;;;;11.31;94.36;102073.63;5105083;28;20024;-64
2022/06/02 07:04:05;;;;;;;20.63;16.30;;;;;;;11.39;94.28;102083.28;5105284;28;20383;-64
2022/06/02 07:06:56;;;;;;;20.80;16.98;;;;;;;11.41;94.26;102085.91;5097323;28;20485;-63
2022/06/02 07:09:28;;;;;;;22.97;16.50;;;;;;;11.48;94.15;102085.03;5095124;28;20363;-63
2022/06/02 07:14:43;;;;;;;17.17;14.10;;;;;;;11.64;91.06;102094.69;5098508;28;20067;-63
2022/06/02 07:17:33;;;;;;;17.53;14.07;;;;;;;11.73;92.06;102094.72;5098573;28;20060;-63
2022/06/02 07:20:08;;;;;;;18.48;14.82;;;;;;;11.82;91.49;102089.50;5099503;28;20287;-64
2022/06/02 07:22:45;;;;;;;16.30;14.50;;;;;;;11.92;90.82;102105.28;5099190;28;20096;-63
2022/06/02 07:25:34;;;;;;;15.20;13.60;;;;;;;12.02;88.81;102093.91;5098839;28;20050;-63
2022/06/02 07:28:08;;;;;;;13.85;12.32;;;;;;;12.09;86.72;102088.66;5098970;28;20032;-63
2022/06/02 07:30:58;;;;;;;15.68;12.93;;;;;;;12.24;88.29;102105.28;5098537;28;20039;-63
2022/06/02 07:33:57;;;;;;;15.52;13.27;;;;;;;12.30;87.80;102106.13;5099128;28;20039;-63
2022/06/02 07:36:50;;;;;;;18.23;14.25;;;;;;;12.33;87.96;102106.13;5098683;28;20028;-62
2022/06/02 07:39:40;;;;;;;16.45;13.15;;;;;;;12.35;87.89;102100.91;5098690;28;20055;-63
2022/06/02 07:42:24;;;;;;;15.55;13.88;;;;;;;12.46;86.99;102112.28;5098595;28;20443;-62
2022/06/02 07:45:03;;;;;;;20.98;14.50;;;;;;;12.49;87.01;102109.63;5098782;28;20020;-63
2022/06/02 07:47:41;;;;;;;16.83;13.75;;;;;;;12.57;87.55;102110.50;5098742;28;20360;-62
2022/06/02 07:50:18;;;;;;;17.70;13.52;;;;;;;12.61;86.03;102106.13;5098484;28;20059;-63
2022/06/02 07:52:55;;;;;;;18.15;14.27;;;;;;;12.68;86.09;102106.09;5098209;28;20119;-63
2022/06/02 07:55:31;;;;;;;16.83;14.40;;;;;;;12.76;85.58;102083.34;5108893;28;20036;-62
2022/06/02 07:58:05;;;;;;;18.75;13.93;;;;;;;13.17;85.54;102098.09;5112420;28;20027;-63
2022/06/02 08:01:08;;;;;;;16.52;13.68;;;;;;;13.60;84.75;102096.16;5098304;28;20115;-63
2022/06/02 08:03:47;;;;;;;16.10;13.70;;;;;;;13.86;81.45;102103.88;5075338;28;20131;-63
2022/06/02 08:06:42;;;;;;;17.08;12.73;;;;;;;14.00;80.67;102096.78;5097951;28;20062;-63
2022/06/02 08:09:45;;;;;;;14.35;12.68;;;;;;;13.86;80.95;102103.88;5098040;28;20119;-63
2022/06/02 08:12:26;;;;;;;14.68;13.07;;;;;;;13.74;80.96;102101.31;5097812;28;20024;-63
2022/06/02 08:15:20;;;;;;;17.40;13.27;;;;;;;13.75;81.75;102100.44;5097830;28;20096;-63
2022/06/02 08:18:04;;;;;;;18.77;13.93;;;;;;;13.78;80.68;102097.78;5097730;28;20490;-63
2022/06/02 08:21:17;;;;;;;14.20;12.70;;;;;;;13.73;80.60;102097.81;5097567;28;20036;-64
2022/06/02 08:24:07;;;;;;;15.80;12.48;;;;;;;13.69;80.66;102100.47;5097080;28;20060;-64
2022/06/02 08:26:45;;;;;;;14.35;12.75;;;;;;;13.58;80.48;102106.69;5109010;28;20020;-63
2022/06/02 08:29:39;;;;;;;14.73;12.85;;;;;;;13.59;79.52;102110.19;5110343;28;20056;-63
2022/06/02 08:32:48;;;;;;;14.65;12.48;;;;;;;13.76;80.55;102107.44;5097760;28;20032;-63
2022/06/02 08:35:26;;;;;;;13.05;11.27;;;;;;;13.82;79.29;102104.78;5104212;28;20073;-62
2022/06/02 08:38:42;;;;;;;14.95;11.80;;;;;;;13.89;80.42;102104.72;5110407;28;20028;-62
2022/06/02 08:41:58;;;;;;;13.82;11.27;;;;;;;13.96;78.38;102120.47;5050571;28;20523;-62
2022/06/02 08:44:51;;;;;;;8.32;7.43;;;;;;;13.86;75.35;102115.25;5105265;28;20031;-63
2022/06/02 08:47:22;;;;;;;;;;;;;;;13.90;79.01;102121.38;5113504;28;20958;-62
2022/06/02 08:50:11;;;;;;;8.40;7.30;;;;;;;13.87;74.71;102110.88;5117598;28;19916;-62
2022/06/02 08:53:04;;;;;;;8.25;7.38;;;;;;;13.98;75.42;102109.06;5117643;28;20039;-62
2022/06/02 08:55:30;;;;;;;11.10;8.75;;;;;;;14.31;73.96;102113.19;5115158;28;20027;-65
2022/06/02 08:58:22;;;;;;;8.90;7.70;;;;;;;14.60;75.40;102110.31;5115495;28;20119;-57
2022/06/02 09:01:01;;;;;;;9.38;8.15;;;;;;;14.84;73.31;102115.34;5097625;28;20444;-64
2022/06/02 09:03:47;;;;;;;7.60;6.72;;;;;;;14.86;72.14;102087.22;5095354;28;20024;-65
2022/06/02 09:06:42;;;;;;;7.93;7.07;;;;;;;15.16;71.48;102109.69;5095072;28;20077;-64
2022/06/02 09:09:29;;;;;;;7.80;6.82;;;;;;;14.93;70.58;102104.69;5101153;28;20085;-65
2022/06/02 09:12:13;;;;;;;9.05;7.40;;;;;;;15.01;70.92;102101.97;5113328;28;20035;-65
2022/06/02 09:15:01;;;;;;;8.68;6.85;;;;;;;15.97;69.80;102101.56;5115414;28;20070;-65
2022/06/02 09:17:57;;;;;;;17.75;8.98;;;;;;;17.60;64.27;102106.41;5115078;28;20413;-64
2022/06/02 09:20:47;;;;;;;8.15;7.35;;;;;;;18.36;60.94;102101.94;5115265;28;20035;-64
2022/06/02 09:23:15;;;;;;;8.55;6.95;;;;;;;19.04;54.39;102107.22;5094916;28;20402;-64
2022/06/02 09:26:16;;;;;;;7.88;6.60;;;;;;;20.04;54.09;102087.34;5095045;28;20056;-64
2022/06/02 09:29:02;;;;;;;7.60;6.80;;;;;;;20.68;53.10;102097.59;4992569;28;20070;-64
2022/06/02 09:31:52;;;;;;;7.95;6.85;;;;;;;20.27;51.08;102089.22;5087842;28;20076;-63
2022/06/02 09:34:48;;;;;;;7.75;6.72;;;;;;;19.54;52.61;102099.59;5094763;28;20048;-63
2022/06/02 09:37:31;;;;;;;15.68;7.00;;;;;;;18.78;53.51;102105.28;5098745;28;20358;-63
2022/06/02 09:40:34;;;;;;;6.50;5.93;;;;;;;18.32;57.46;102099.44;5114766;28;20107;-64
2022/06/02 09:43:32;;;;;;;7.78;6.53;;;;;;;17.83;57.93;102087.41;5112492;28;20431;-64
2022/06/02 09:46:48;;;;;;;8.65;7.05;;;;;;;17.62;58.80;102098.44;5095624;28;20470;-55
2022/06/02 09:49:32;;;;;;;7.35;6.15;;;;;;;17.57;58.25;102095.03;5095615;28;20395;-56
2022/06/02 09:52:20;;;;;;;8.15;6.85;;;;;;;17.64;58.49;102099.31;5095634;28;20031;-56
2022/06/02 09:55:04;;;;;;;6.57;5.97;;;;;;;17.64;58.64;102099.31;5057961;28;20044;-58
2022/06/02 09:57:55;;;;;;;6.22;5.63;;;;;;;17.80;57.54;102099.84;5112856;28;20475;-64
2022/06/02 10:00:35;;;;;;;9.13;7.22;;;;;;;17.57;57.90;102095.91;5112424;28;20024;-66
2022/06/02 10:03:38;;;;;;;7.65;6.95;;;;;;;17.54;59.48;102100.38;5103288;28;20110;-65
2022/06/02 10:06:27;;;;;;;7.97;7.18;;;;;;;17.22;55.16;102104.59;5095079;28;20499;-65
2022/06/02 10:09:23;;;;;;;7.50;6.50;;;;;;;16.85;59.79;102104.44;5095911;28;20087;-68
2022/06/02 10:15:13;;;;;;;8.63;7.10;;;;;;;17.51;57.89;102097.78;5095431;28;20047;-66
2022/06/02 10:17:58;;;;;;;8.80;7.82;;;;;;;17.45;56.70;102098.81;5095512;28;20032;-65
2022/06/02 10:20:59;;;;;;;9.25;8.23;;;;;;;17.25;57.85;102085.13;5098869;28;20110;-65
2022/06/02 10:24:02;;;;;;;9.45;8.32;;;;;;;17.37;59.23;102092.81;5115276;28;20059;-66
2022/06/02 10:26:41;;;;;;;9.15;7.90;;;;;;;17.70;58.47;102068.25;5115732;28;20035;-65
2022/06/02 10:29:44;;;;;;;8.13;7.32;;;;;;;18.11;57.15;102087.59;5115305;28;20098;-66
2022/06/02 10:32:27;;;;;;;8.45;7.45;;;;;;;18.51;55.68;102075.97;5115684;28;20092;-65
2022/06/02 10:35:27;;;;;;;7.97;6.03;;;;;;;18.65;53.43;102079.16;5115364;28;20032;-65
2022/06/02 10:38:14;;;;;;;5.82;5.32;;;;;;;18.85;53.77;102075.94;5013253;28;20044;-65
2022/06/02 10:41:17;;;;;;;5.88;5.30;;;;;;;19.27;53.72;102076.47;5100352;28;20131;-65
2022/06/02 10:44:07;;;;;;;7.25;6.55;;;;;;;19.50;52.14;102073.16;5096200;28;20038;-60
2022/06/02 10:46:39;;;;;;;9.40;6.22;;;;;;;19.32;51.62;102086.06;5098019;28;20028;-62
2022/06/02 10:49:23;;;;;;;6.47;5.88;;;;;;;19.29;51.43;102074.66;5113021;28;20110;-61
2022/06/02 10:52:19;;;;;;;7.13;6.43;;;;;;;19.20;50.70;102073.16;5115360;28;20038;-64
2022/06/02 10:55:09;;;;;;;6.88;5.50;;;;;;;19.35;50.08;102074.47;5115490;28;20085;-58
2022/06/02 10:58:06;;;;;;;6.80;6.10;;;;;;;19.42;51.04;102070.69;5115245;28;20039;-64
2022/06/02 11:00:49;;;;;;;6.82;6.22;;;;;;;19.45;52.18;102070.63;5115209;28;20027;-64
2022/06/02 11:03:51;;;;;;;8.15;6.35;;;;;;;19.27;52.52;102066.72;5094749;28;20056;-65
2022/06/02 11:06:30;;;;;;;6.95;6.07;;;;;;;19.17;51.79;102061.75;5094762;28;20020;-65
2022/06/02 11:09:19;;;;;;;7.20;6.40;;;;;;;19.16;52.00;102055.56;5094726;28;20347;-65
2022/06/02 11:12:07;;;;;;;6.90;6.15;;;;;;;19.01;51.60;102066.66;5094808;28;20032;-65
2022/06/02 11:15:03;;;;;;;8.30;6.65;;;;;;;19.37;53.09;102057.59;5113057;28;20446;-66
2022/06/02 11:17:52;;;;;;;7.60;6.90;;;;;;;19.60;50.55;102053.38;5094531;28;20036;-65
2022/06/02 11:20:36;;;;;;;6.95;6.28;;;;;;;19.46;49.76;102054.63;5094802;28;20062;-65
2022/06/02 11:23:21;;;;;;;8.00;6.40;;;;;;;19.09;51.59;102059.31;5094745;28;20070;-65
2022/06/02 11:26:08;;;;;;;7.65;6.85;;;;;;;18.75;51.96;102056.75;5094038;28;20473;-65
2022/06/02 11:28:34;;;;;;;6.68;6.05;;;;;;;18.58;50.83;102058.97;5100988;28;20480;-65
2022/06/02 11:31:24;;;;;;;7.90;6.90;;;;;;;18.65;52.70;102060.59;5100265;28;20024;-64
2022/06/02 11:34:31;;;;;;;7.63;6.60;;;;;;;18.94;50.15;102052.66;5111846;28;20626;-65
2022/06/02 11:37:39;;;;;;;5.63;5.07;;;;;;;19.22;49.36;102054.53;5032517;28;20395;-65
2022/06/02 11:40:25;;;;;;;5.82;4.25;;;;;;;19.53;47.73;102049.19;5032076;28;20076;-64
2022/06/02 11:43:20;;;;;;;6.07;5.38;;;;;;;19.62;47.31;102040.91;5087684;28;20459;-64
2022/06/02 11:45:48;;;;;;;5.35;4.85;;;;;;;19.92;46.85;102028.41;5062255;28;20408;-63
2022/06/02 11:48:55;;;;;;;5.93;4.93;;;;;;;20.13;47.04;102033.88;5109821;28;20363;-63
2022/06/02 11:51:40;;;;;;;5.85;4.97;;;;;;;20.26;47.29;102022.84;5080915;28;20109;-64
2022/06/02 11:54:42;;;;;;;7.32;5.05;;;;;;;20.56;47.68;102020.91;5094451;28;20469;-57
2022/06/02 11:57:26;;;;;;;6.40;5.80;;;;;;;20.28;44.09;102027.16;5093788;28;20444;-65
2022/06/02 12:00:28;;;;;;;6.85;5.70;;;;;;;20.12;47.66;102018.84;5096769;28;20347;-64
2022/06/02 12:03:24;;;;;;;5.97;5.38;;;;;;;20.16;45.48;102014.31;5098373;28;20374;-65
2022/06/02 12:06:22;;;;;;;5.50;5.00;;;;;;;20.23;46.33;102005.22;5098185;28;20032;-65
2022/06/02 12:09:09;;;;;;;5.38;4.88;;;;;;;20.28;43.84;102008.53;5097518;28;20391;-65
2022/06/02 12:11:59;;;;;;;5.88;5.28;;;;;;;20.11;46.04;102009.13;5097815;28;20055;-64
2022/06/02 12:14:33;;;;;;;5.25;4.25;;;;;;;20.02;44.59;102004.16;5097938;28;20024;-64
2022/06/02 12:17:07;;;;;;;5.20;4.40;;;;;;;20.02;45.92;102003.28;5097866;28;20040;-65
2022/06/02 12:20:06;;;;;;;4.57;4.00;;;;;;;20.24;45.19;101995.44;5097676;28;20032;-64
2022/06/02 12:23:00;;;;;;;4.18;3.78;;;;;;;20.42;44.93;101998.34;5097669;28;20397;-64
2022/06/02 12:25:34;;;;;;;5.03;4.53;;;;;;;20.68;43.18;101993.84;5097634;28;20040;-60
2022/06/02 12:28:05;;;;;;;6.20;5.35;;;;;;;20.78;42.39;101993.44;5097728;28;20067;-69
2022/06/02 12:30:47;;;;;;;6.22;5.63;;;;;;;20.84;44.15;101992.34;5097358;28;20028;-64
2022/06/02 12:33:45;;;;;;;5.35;4.85;;;;;;;20.83;45.65;101991.47;5097368;28;20093;-65
2022/06/02 12:36:34;;;;;;;5.00;4.50;;;;;;;20.81;42.90;101982.69;5097775;28;20029;-65
2022/06/02 12:39:36;;;;;;;4.72;4.22;;;;;;;20.61;44.76;101976.38;5096860;28;20040;-64
2022/06/02 12:42:20;;;;;;;6.05;4.78;;;;;;;20.43;44.55;101981.44;5097544;28;20032;-64
2022/06/02 12:44:47;;;;;;;4.80;4.40;;;;;;;20.35;43.99;101988.81;5097086;28;20039;-65
2022/06/02 12:47:40;;;;;;;4.95;4.47;;;;;;;20.23;43.76;101977.75;5097347;28;20036;-64
2022/06/02 12:50:22;;;;;;;6.15;5.55;;;;;;;19.87;44.77;101967.47;5097386;28;20104;-64
2022/06/02 12:53:11;;;;;;;;;;;;;;;19.68;45.86;101964.56;5097722;28;20039;-65
2022/06/02 12:56:16;;;;;;;5.57;4.95;;;;;;;19.69;45.36;101968.09;5052244;28;20251;-65
2022/06/02 12:59:24;;;;;;;7.00;5.50;;;;;;;19.63;44.46;101966.50;5081417;28;20130;-64